AirNav   Pilot Hours Calculator
 
 922 users online  

62IL Ferris Field Airport
Marengo, Illinois, USA

GOING TO MARENGO?


FAA INFORMATION EFFECTIVE 01 DECEMBER 2022

Location

FAA Identifier: 62IL
Lat/Long: 42-11-10.0840N 088-36-15.3290W
42-11.168067N 088-36.255483W
42.1861344,-88.6042581
(estimated)
Elevation: 841 ft. / 256 m (estimated)
Variation: 00W (1985)
From city: 4 miles S of MARENGO, IL
Time zone: UTC -6 (UTC -5 during Daylight Saving Time)
Zip code: 60152

Airport Operations

Airport use: Private use. Permission required prior to landing
Activation date: 12/1968
Control tower: no
ARTCC: CHICAGO CENTER
FSS: KANKAKEE FLIGHT SERVICE STATION
Attendance: CONTINUOUS
Wind indicator: yes
Segmented circle: no

Airport Communications

WX AWOS-3 at DKB (16 nm S): 119.075 (815-748-2350)

Nearby radio navigation aids

VOR radial/distance  VOR name  Freq  Var
DPAr325/21.1DUPAGE VOR/DME108.4002E
OBKr268/29.1NORTHBROOK VOR/DME113.0002W
JVLr132/31.5JANESVILLE VOR/DME114.3003E

Airport Services

Airframe service: NONE
Powerplant service: NONE

Runway Information

Runway N/S

Dimensions: 1925 x 80 ft. / 587 x 24 m
Surface: turf
RUNWAY N  RUNWAY S
Traffic pattern: leftleft

Airport Ownership and Management from official FAA records

Ownership: Privately-owned
Owner: HARRY R. FERRIS
20805 E ANTHONY RD
MARENGO, IL 60152
Phone 815-558-0581
Manager: HARRY R. FERRIS
20805 E ANTHONY RD
MARENGO, IL 60152
Phone 815-558-0581

Airport Operational Statistics

Aircraft based on the field: 2
Single engine airplanes: 2
    

Additional Remarks

FOR CD CTC CHICAGO APCH AT 847-289-0926.

Instrument Procedures

There are no published instrument procedures at 62IL.

Some nearby airports with instrument procedures:

3CK - Lake in the Hills Airport (13 nm E)
C77 - Poplar Grove Airport (13 nm NW)
KDKB - De Kalb Taylor Municipal Airport (16 nm S)
10C - Galt Field Airport (17 nm NE)
KRFD - Chicago/Rockford International Airport (22 nm W)
 
Loc | Ops | Rwys | IFR | FBO | Links
Com | Nav | Svcs | Stats | Notes
Area around 62IL (Ferris Field Airport)
 
Road maps at: MapQuest Bing Google
 
Aerial photo
No photo
 
Sectional chart

 
Airport distance calculator
Flying to Ferris Field Airport? Find the distance to fly.

From to 62IL

Sunrise and sunset
Times for 07-Dec-2022
 Local
(UTC-6)
 Zulu
(UTC)
Morning civil twilight06:3912:39
Sunrise07:1013:10
Sunset16:2122:21
Evening civil twilight16:5322:53

Current date and time
Zulu (UTC)  07-Dec-2022 12:51:56
Local (UTC-6)  07-Dec-2022 06:51:56
 
METAR
KDKB 
16nm S 
071235Z AUTO 00000KT 1 1/4SM BR SCT002 OVC017 00/00 A3018 RMK AO2 T00040004
KRFD 
22nm W 
071154Z 00000KT 6SM BR OVC014 01/M01 A3018 RMK AO2 SLP226 I6000 T00061011 10011 21039 53010
KDPA 
23nm SE 
071152Z 00000KT 1/4SM R02L/1800FT FG VV002 02/02 A3017 RMK AO2 SLP222 T00220022 10039 20006 53013
K06C 
25nm SE 
071235Z AUTO 00000KT 1/4SM OVC003 02/02 A3018 RMK AO2 T00210021
KARR 
26nm S 
071207Z AUTO 00000KT 2 1/2SM BR FEW003 OVC017 02/01 A3018 RMK AO2 T00170011
KRPJ 
27nm SW 
071235Z AUTO 00000KT 5SM BR OVC012 03/03 A3018 RMK AO2 T00300025 TSNO
TAF
KRFD 
22nm W 
071120Z 0712/0812 VRB03KT 6SM BR OVC010 TEMPO 0712/0715 1SM BR OVC005 FM071800 31005KT P6SM BKN015 FM072100 35005KT P6SM BKN025 FM080100 01005KT P6SM SCT025 BKN100
KDPA 
23nm SE 
071120Z 0712/0812 VRB03KT 1/2SM FG OVC003 TEMPO 0712/0714 1/4SM FG VV002 FM071500 33004KT 3SM BR OVC004 FM071800 32008KT P6SM BKN010 FM072100 35006KT P6SM BKN025 FM080200 01005KT P6SM SCT010 BKN020
NOTAMs
Click for the latest NOTAMs
NOTAMs are issued by the DoD/FAA and will open in a separate window not controlled by AirNav.

 

 
 

Would you like to see your business listed on this page?

 If your business provides an interesting product or service to pilots, flight crews, aircraft, or users of the Ferris Field Airport, you should consider listing it here.  To start the listing process, click on the button below
 
Add a business
 

Other Pages about Ferris Field Airport

Update a link
 
Copyright © AirNav, LLC. All rights reserved. Privacy Policy  Contact